Time;durP1;ratioP1;P1;durP2;ratioP2;P2;SDS_P1;SDS_P2;PMS_P1;PMS_P2;Temp;Humidity;BMP_temperature;BMP_pressure;BME280_temperature;BME280_humidity;BME280_pressure;Samples;Min_cycle;Max_cycle;Signal;HPM_P1;HPM_P2
2023/07/26 00:02:10;;;;;;;5.53;4.28;;;;;;;13.67;90.89;100425.56;4986612;28;20061;-82
2023/07/26 00:04:37;;;;;;;8.77;4.68;;;;;;;13.72;90.71;100428.44;4982832;28;20085;-80
2023/07/26 00:07:06;;;;;;;7.43;3.92;;;;;;;13.70;90.54;100420.75;4985459;28;20189;-83
2023/07/26 00:09:32;;;;;;;7.60;4.43;;;;;;;13.77;91.04;100431.34;4976104;28;20094;-82
2023/07/26 00:11:59;;;;;;;7.10;4.45;;;;;;;13.79;91.29;100437.25;4978183;28;20129;-81
2023/07/26 00:14:26;;;;;;;7.80;4.65;;;;;;;13.80;91.45;100438.88;4978353;28;20496;-82
2023/07/26 00:16:52;;;;;;;8.38;4.30;;;;;;;13.86;91.60;100435.53;4978181;28;20081;-81
2023/07/26 00:19:19;;;;;;;8.70;4.20;;;;;;;13.80;91.77;100431.00;4977095;28;20174;-79
2023/07/26 00:21:46;;;;;;;7.43;4.30;;;;;;;13.87;92.03;100434.53;4986386;28;20046;-79
2023/07/26 00:24:14;;;;;;;7.38;4.50;;;;;;;13.89;91.62;100424.63;4977968;28;20139;-83
2023/07/26 00:26:41;;;;;;;5.43;4.18;;;;;;;13.85;91.17;100424.19;4976978;28;20134;-82
2023/07/26 00:29:07;;;;;;;9.32;4.80;;;;;;;13.81;91.49;100430.81;4977682;28;20134;-82
2023/07/26 00:31:34;;;;;;;9.00;4.65;;;;;;;13.87;91.09;100432.72;4974949;28;20527;-81
2023/07/26 00:34:01;;;;;;;9.27;4.10;;;;;;;13.90;91.06;100431.53;4977309;28;20134;-84
2023/07/26 00:36:27;;;;;;;5.32;4.15;;;;;;;13.93;90.93;100439.06;4987883;28;20058;-83
2023/07/26 00:38:54;;;;;;;6.70;4.10;;;;;;;13.91;90.78;100438.44;4980500;28;20577;-83
2023/07/26 00:41:22;;;;;;;12.35;4.35;;;;;;;13.95;90.88;100440.50;4976655;28;20055;-83
2023/07/26 00:43:48;;;;;;;7.22;4.43;;;;;;;14.05;90.94;100431.53;4974892;28;20073;-81
2023/07/26 00:46:16;;;;;;;9.52;4.45;;;;;;;14.04;90.29;100435.16;4983927;28;20154;-82
2023/07/26 00:48:43;;;;;;;6.05;4.13;;;;;;;14.03;90.15;100430.91;4975655;28;20134;-81
2023/07/26 00:51:11;;;;;;;5.68;4.20;;;;;;;14.06;90.28;100433.16;4972825;28;20577;-82
2023/07/26 00:53:38;;;;;;;9.93;4.20;;;;;;;14.08;89.94;100439.06;4980430;28;20487;-82
2023/07/26 00:56:05;;;;;;;7.78;4.38;;;;;;;14.10;90.09;100429.97;4978632;28;20051;-81
2023/07/26 00:58:35;;;;;;;5.13;4.07;;;;;;;14.09;89.93;100435.44;4979886;28;20480;-84
2023/07/26 01:01:03;;;;;;;7.00;4.28;;;;;;;14.12;90.24;100441.16;4976376;28;20051;-82
2023/07/26 01:03:30;;;;;;;5.70;4.22;;;;;;;14.16;90.03;100438.97;4984133;28;20054;-83
2023/07/26 01:06:10;;;;;;;6.35;4.32;;;;;;;14.25;89.37;100443.09;4983972;28;20061;-83
2023/07/26 01:08:49;;;;;;;6.78;4.10;;;;;;;14.22;89.02;100441.66;4981591;28;20134;-81
2023/07/26 01:11:25;;;;;;;5.65;4.00;;;;;;;14.16;89.14;100441.59;4976961;28;20498;-82
2023/07/26 01:13:56;;;;;;;11.27;4.13;;;;;;;14.15;89.26;100440.78;4982680;28;20569;-82
2023/07/26 01:16:23;;;;;;;6.75;4.18;;;;;;;14.02;89.36;100431.91;4982862;28;20146;-84
2023/07/26 01:18:49;;;;;;;6.10;4.03;;;;;;;14.10;89.68;100444.94;4992792;28;20133;-81
2023/07/26 01:21:16;;;;;;;6.75;4.10;;;;;;;14.12;89.69;100441.16;4984956;28;20054;-82
2023/07/26 01:23:44;;;;;;;8.90;4.25;;;;;;;14.16;89.64;100446.84;4990970;28;20050;-83
2023/07/26 01:26:10;;;;;;;6.05;4.18;;;;;;;14.14;89.84;100439.16;4987702;28;20043;-83
2023/07/26 01:28:37;;;;;;;8.15;4.18;;;;;;;14.10;89.76;100443.13;4992828;28;20093;-84
2023/07/26 01:31:08;;;;;;;8.38;3.80;;;;;;;14.11;90.05;100442.16;4991862;28;20047;-82
2023/07/26 01:33:37;;;;;;;10.32;4.60;;;;;;;14.08;90.37;100445.13;4983994;28;20154;-84
2023/07/26 01:36:05;;;;;;;7.82;4.57;;;;;;;14.06;90.37;100431.34;4983938;28;20042;-84
2023/07/26 01:38:33;;;;;;;7.28;4.30;;;;;;;14.06;90.42;100441.88;4983646;28;20417;-86
2023/07/26 01:41:02;;;;;;;8.75;4.78;;;;;;;14.07;90.37;100447.94;4985298;28;20151;-81
2023/07/26 01:43:29;;;;;;;7.68;4.20;;;;;;;14.06;91.19;100443.69;4987769;28;20058;-83
2023/07/26 01:45:55;;;;;;;6.20;4.53;;;;;;;14.09;91.79;100443.31;4993282;28;20077;-82
2023/07/26 01:48:22;;;;;;;6.75;4.40;;;;;;;14.09;91.97;100445.94;4987573;28;20119;-81
2023/07/26 01:50:49;;;;;;;7.22;4.82;;;;;;;14.04;91.82;100438.59;4986813;28;20129;-83
2023/07/26 01:53:15;;;;;;;6.82;4.20;;;;;;;14.05;92.46;100440.25;4986774;28;20054;-83
2023/07/26 01:55:42;;;;;;;6.53;4.25;;;;;;;14.07;92.84;100440.88;4983293;28;20486;-83
2023/07/26 01:58:13;;;;;;;7.95;4.35;;;;;;;14.06;92.55;100439.25;4989465;28;20050;-84
2023/07/26 02:00:39;;;;;;;5.57;4.07;;;;;;;13.98;93.05;100434.06;4988883;28;20061;-79
2023/07/26 02:03:06;;;;;;;7.22;4.15;;;;;;;13.98;93.30;100444.59;4990400;28;20086;-81
2023/07/26 02:05:32;;;;;;;7.50;4.38;;;;;;;13.94;93.35;100438.06;4992306;28;20054;-83
2023/07/26 02:07:59;;;;;;;5.05;4.22;;;;;;;13.93;93.86;100449.59;4991850;28;20085;-84
2023/07/26 02:10:26;;;;;;;5.78;4.22;;;;;;;13.89;94.09;100445.69;4986632;28;20055;-82
2023/07/26 02:12:52;;;;;;;10.25;4.20;;;;;;;13.91;94.06;100454.22;4982623;28;20531;-82
2023/07/26 02:15:21;;;;;;;5.82;4.30;;;;;;;13.93;93.95;100452.22;4981820;28;20067;-83
2023/07/26 02:17:48;;;;;;;7.70;4.35;;;;;;;13.91;93.99;100456.84;4992213;28;20058;-84
2023/07/26 02:20:14;;;;;;;11.48;4.47;;;;;;;13.85;94.14;100445.22;4991856;28;20478;-84
2023/07/26 02:22:41;;;;;;;9.75;4.50;;;;;;;13.89;94.49;100451.75;4988312;28;20473;-82
2023/07/26 02:25:08;;;;;;;6.30;4.40;;;;;;;13.86;94.54;100451.31;4980458;28;20492;-82
2023/07/26 02:27:35;;;;;;;5.20;4.32;;;;;;;13.86;94.34;100452.13;4981110;28;20047;-81
2023/07/26 02:30:01;;;;;;;10.20;4.65;;;;;;;13.85;94.46;100447.03;4989310;28;20086;-81
2023/07/26 02:32:29;;;;;;;6.72;4.47;;;;;;;13.94;93.76;100451.22;4979483;28;20141;-80
2023/07/26 02:34:56;;;;;;;8.05;4.95;;;;;;;13.92;94.01;100450.59;4977809;28;20106;-80
2023/07/26 02:37:22;;;;;;;6.13;4.13;;;;;;;13.91;94.01;100449.75;4990121;28;20110;-81
2023/07/26 02:39:50;;;;;;;8.32;4.80;;;;;;;13.87;94.18;100452.94;4977487;28;20129;-79
2023/07/26 02:42:17;;;;;;;7.47;4.78;;;;;;;13.86;94.52;100452.13;4980043;28;20109;-81
2023/07/26 02:44:43;;;;;;;7.80;4.97;;;;;;;13.84;94.72;100443.59;4988457;28;20137;-80
2023/07/26 02:47:10;;;;;;;8.55;5.60;;;;;;;13.83;94.83;100449.03;4976930;28;20078;-80
2023/07/26 02:49:38;;;;;;;9.68;4.97;;;;;;;13.87;94.44;100453.75;4980655;28;20129;-81
2023/07/26 02:52:05;;;;;;;7.95;4.95;;;;;;;13.91;94.50;100454.22;4980378;28;20055;-80
2023/07/26 02:54:32;;;;;;;6.85;4.53;;;;;;;13.97;93.81;100437.69;4978433;28;20129;-81
2023/07/26 02:56:58;;;;;;;6.90;4.80;;;;;;;13.95;93.85;100439.69;4979092;28;20066;-80
2023/07/26 02:59:25;;;;;;;8.63;4.80;;;;;;;13.89;94.03;100440.41;4990084;28;20134;-80
2023/07/26 03:01:51;;;;;;;9.68;4.82;;;;;;;13.94;94.03;100438.06;4980768;28;20135;-81
2023/07/26 03:04:20;;;;;;;8.82;4.55;;;;;;;13.99;93.94;100443.59;4983120;28;20143;-79
2023/07/26 03:06:48;;;;;;;10.77;5.13;;;;;;;13.95;93.75;100435.25;4982607;28;20483;-80
2023/07/26 03:09:15;;;;;;;5.63;4.38;;;;;;;13.91;93.78;100433.16;4983918;28;20050;-81
2023/07/26 03:11:42;;;;;;;8.55;5.53;;;;;;;13.92;93.51;100435.63;4982687;28;20078;-80
2023/07/26 03:14:08;;;;;;;7.38;5.15;;;;;;;13.89;93.59;100440.41;4983331;28;20059;-79
2023/07/26 03:16:35;;;;;;;7.18;4.88;;;;;;;13.91;93.68;100449.75;4982807;28;20071;-81
2023/07/26 03:19:02;;;;;;;6.68;5.13;;;;;;;13.87;93.95;100450.31;4980723;28;20150;-79
2023/07/26 03:21:28;;;;;;;9.10;6.07;;;;;;;13.83;94.01;100452.47;4978682;28;20126;-80
2023/07/26 03:23:56;;;;;;;9.10;5.82;;;;;;;13.81;94.12;100443.13;4986058;28;20081;-80
2023/07/26 03:26:23;;;;;;;10.30;5.63;;;;;;;13.81;94.18;100448.41;4977692;28;20078;-79
2023/07/26 03:28:49;;;;;;;11.35;5.80;;;;;;;13.83;94.08;100449.03;4984909;28;20089;-79
2023/07/26 03:31:16;;;;;;;10.57;5.88;;;;;;;13.82;94.43;100457.91;4980277;28;20546;-80
2023/07/26 03:33:43;;;;;;;8.20;5.60;;;;;;;13.79;94.66;100459.09;4990317;28;20086;-81
2023/07/26 03:36:09;;;;;;;8.85;6.13;;;;;;;13.79;94.89;100466.16;4977138;28;20051;-79
2023/07/26 03:38:36;;;;;;;7.97;5.60;;;;;;;13.74;95.08;100463.25;4982864;28;20094;-81
2023/07/26 03:41:04;;;;;;;9.88;6.88;;;;;;;13.84;94.92;100464.63;4980917;28;20054;-82
2023/07/26 03:43:31;;;;;;;9.65;5.88;;;;;;;13.84;94.96;100466.44;4977948;28;20122;-80
2023/07/26 03:45:57;;;;;;;8.05;5.60;;;;;;;13.83;95.28;100476.16;4973617;28;20066;-81
2023/07/26 03:48:24;;;;;;;7.93;5.78;;;;;;;13.85;94.82;100470.72;4971412;28;20098;-81
2023/07/26 03:50:50;;;;;;;7.90;5.50;;;;;;;13.86;95.07;100477.59;4975398;28;20078;-81
2023/07/26 03:53:17;;;;;;;10.30;6.05;;;;;;;13.86;95.25;100474.97;4970031;28;20078;-81
2023/07/26 03:55:44;;;;;;;7.28;5.90;;;;;;;13.82;95.66;100476.34;4976023;28;20046;-79
2023/07/26 03:58:15;;;;;;;8.77;5.72;;;;;;;13.84;95.79;100474.34;4974261;28;20078;-80
2023/07/26 04:00:41;;;;;;;9.35;5.47;;;;;;;13.86;95.50;100480.25;4973835;28;20157;-81
2023/07/26 04:03:09;;;;;;;7.50;5.53;;;;;;;13.88;95.63;100486.94;4978486;28;20066;-83
2023/07/26 04:05:36;;;;;;;9.48;6.03;;;;;;;13.84;95.51;100483.03;4980512;28;20547;-82
2023/07/26 04:08:02;;;;;;;8.63;5.78;;;;;;;13.82;95.59;100486.84;4978582;28;20070;-80
2023/07/26 04:10:29;;;;;;;7.13;5.78;;;;;;;13.80;95.56;100479.13;4988470;28;20053;-80
2023/07/26 04:12:55;;;;;;;10.88;6.00;;;;;;;13.82;95.27;100490.31;4979956;28;20398;-82
2023/07/26 04:15:24;;;;;;;11.52;5.90;;;;;;;13.87;95.40;100516.88;4980475;28;20123;-82
2023/07/26 04:17:50;;;;;;;9.68;6.00;;;;;;;13.88;95.72;100531.66;4983887;28;20050;-81
2023/07/26 04:20:17;;;;;;;13.95;7.10;;;;;;;13.82;96.69;100524.50;4985549;28;20480;-81
2023/07/26 04:22:43;;;;;;;8.02;6.75;;;;;;;13.73;97.64;100519.47;4971048;28;20071;-82
2023/07/26 04:25:10;;;;;;;11.70;7.07;;;;;;;13.69;98.23;100508.53;4978317;28;20078;-81
2023/07/26 04:27:37;;;;;;;7.68;5.40;;;;;;;13.53;97.97;100514.75;4973567;28;20085;-80
2023/07/26 04:30:04;;;;;;;6.18;4.63;;;;;;;13.38;97.95;100515.69;4976886;28;20102;-80
2023/07/26 04:32:35;;;;;;;5.88;4.30;;;;;;;13.15;97.84;100515.69;4965546;28;20161;-80
2023/07/26 04:35:02;;;;;;;5.43;4.00;;;;;;;13.01;97.96;100511.19;4974149;28;20058;-81
2023/07/26 04:37:29;;;;;;;5.75;3.70;;;;;;;13.03;98.89;100514.47;4974777;28;20568;-80
2023/07/26 04:39:55;;;;;;;7.43;3.97;;;;;;;13.04;99.77;100510.84;4980038;28;20066;-81
2023/07/26 04:44:50;;;;;;;7.35;3.85;;;;;;;13.16;100.00;100527.88;4975550;28;20054;-79
2023/07/26 04:47:18;;;;;;;5.90;3.85;;;;;;;13.22;100.00;100521.91;4977980;28;20082;-79
2023/07/26 04:49:50;;;;;;;9.75;4.45;;;;;;;13.29;100.00;100518.38;4979858;28;20054;-79
2023/07/26 04:52:17;;;;;;;4.93;3.63;;;;;;;13.41;99.57;100518.78;4981141;28;20050;-78
2023/07/26 04:54:44;;;;;;;5.35;3.88;;;;;;;13.52;99.11;100522.81;4978055;28;20288;-80
2023/07/26 04:57:10;;;;;;;5.82;4.00;;;;;;;13.54;98.86;100523.47;4978836;28;20053;-79
2023/07/26 04:59:37;;;;;;;4.88;3.80;;;;;;;13.58;98.59;100525.56;4974917;28;20129;-79
2023/07/26 05:02:04;;;;;;;5.45;3.97;;;;;;;13.58;98.37;100517.66;4977255;28;20081;-77
2023/07/26 05:04:31;;;;;;;5.05;3.90;;;;;;;13.66;98.65;100523.84;4977782;28;20055;-78
2023/07/26 05:06:59;;;;;;;4.50;3.75;;;;;;;13.69;98.16;100520.88;4975842;28;20114;-78
2023/07/26 05:09:25;;;;;;;5.28;4.20;;;;;;;13.76;97.67;100524.38;4977569;28;20134;-79
2023/07/26 05:11:52;;;;;;;6.13;4.20;;;;;;;13.76;96.82;100521.75;4978714;28;20477;-76
2023/07/26 05:14:20;;;;;;;8.98;4.00;;;;;;;13.77;96.83;100523.38;4978049;28;20058;-78
2023/07/26 05:16:47;;;;;;;5.95;4.00;;;;;;;13.85;96.80;100523.31;4978230;28;20521;-80
2023/07/26 05:19:13;;;;;;;5.32;4.25;;;;;;;13.94;97.04;100517.78;4977937;28;20047;-79
2023/07/26 05:21:40;;;;;;;8.60;4.35;;;;;;;14.04;96.38;100520.16;4976353;28;20078;-77
2023/07/26 05:24:08;;;;;;;8.40;4.10;;;;;;;14.10;96.53;100521.25;4976368;28;20050;-77
2023/07/26 05:26:35;;;;;;;6.28;3.63;;;;;;;14.14;96.48;100523.34;4976999;28;20061;-76
2023/07/26 05:29:01;;;;;;;4.95;3.78;;;;;;;14.18;96.37;100521.97;4976873;28;20097;-77
2023/07/26 05:31:28;;;;;;;4.78;3.90;;;;;;;14.34;96.32;100526.22;4971174;28;20050;-79
2023/07/26 05:33:55;;;;;;;5.15;4.22;;;;;;;14.39;95.41;100520.41;4976158;28;20051;-78
2023/07/26 05:36:21;;;;;;;6.28;3.92;;;;;;;14.52;94.35;100510.91;4978085;28;20129;-77
2023/07/26 05:38:48;;;;;;;9.25;5.05;;;;;;;14.53;93.31;100504.63;4976368;28;20065;-77
2023/07/26 05:41:16;;;;;;;6.22;4.25;;;;;;;14.56;93.26;100516.63;4977010;28;20089;-79
2023/07/26 05:43:43;;;;;;;4.75;4.10;;;;;;;14.59;93.18;100526.78;4977722;28;20192;-78
2023/07/26 05:46:09;;;;;;;7.18;4.13;;;;;;;14.72;92.88;100519.00;4978052;28;20149;-77
2023/07/26 05:48:36;;;;;;;6.70;4.18;;;;;;;14.77;92.49;100514.00;4979032;28;20523;-78
2023/07/26 05:51:03;;;;;;;5.10;3.72;;;;;;;14.82;92.70;100521.34;4978255;28;20129;-78
2023/07/26 05:53:29;;;;;;;8.63;4.97;;;;;;;14.93;92.46;100524.31;4977370;28;20050;-79
2023/07/26 05:55:56;;;;;;;9.38;5.40;;;;;;;15.04;92.28;100519.56;4976063;28;20081;-80
2023/07/26 05:58:24;;;;;;;9.45;5.32;;;;;;;15.18;91.65;100516.03;4976110;28;20061;-78
2023/07/26 06:00:51;;;;;;;9.40;5.72;;;;;;;15.27;90.40;100520.19;4974548;28;20492;-80
2023/07/26 06:03:18;;;;;;;11.13;6.00;;;;;;;15.33;89.91;100516.78;4976161;28;20157;-76
2023/07/26 06:05:45;;;;;;;10.98;7.00;;;;;;;15.40;89.27;100522.94;4977407;28;20137;-78
2023/07/26 06:08:14;;;;;;;11.38;6.60;;;;;;;15.51;89.37;100522.44;4977378;28;20046;-78
2023/07/26 06:10:40;;;;;;;12.02;6.25;;;;;;;15.64;88.16;100513.00;4976006;28;20055;-78
2023/07/26 06:13:12;;;;;;;8.85;5.78;;;;;;;15.63;88.13;100521.91;4976954;28;20089;-78
2023/07/26 06:15:40;;;;;;;10.18;5.75;;;;;;;16.37;87.52;100519.53;4976011;28;20054;-79
2023/07/26 06:18:07;;;;;;;11.60;5.70;;;;;;;17.42;83.41;100506.59;4975669;28;20047;-78
2023/07/26 06:20:34;;;;;;;7.22;5.18;;;;;;;17.83;80.87;100516.97;4975382;28;20120;-79
2023/07/26 06:23:00;;;;;;;11.52;5.57;;;;;;;18.38;77.94;100506.03;4977655;28;20047;-80
2023/07/26 06:25:30;;;;;;;8.52;4.88;;;;;;;18.34;78.16;100521.53;4977471;28;20089;-78
2023/07/26 06:27:57;;;;;;;9.25;5.20;;;;;;;18.24;77.57;100521.97;4975230;28;20049;-78
2023/07/26 06:30:23;;;;;;;10.75;5.80;;;;;;;18.10;77.70;100520.34;4976939;28;20141;-79
2023/07/26 06:32:51;;;;;;;10.40;5.80;;;;;;;17.91;77.66;100510.66;4976685;28;20094;-79
2023/07/26 06:35:24;;;;;;;8.98;5.50;;;;;;;17.64;78.34;100516.94;4976357;28;20156;-79
2023/07/26 06:37:51;;;;;;;;;;;;;;;17.66;79.25;100526.34;4978483;28;20108;-81
2023/07/26 06:40:41;;;;;;;11.45;6.40;;;;;;;17.32;79.88;100510.66;4973119;28;19929;-82
2023/07/26 06:43:20;;;;;;;11.35;6.07;;;;;;;17.42;79.71;100526.94;4973961;28;20065;-80
2023/07/26 06:46:03;;;;;;;12.13;6.45;;;;;;;17.35;79.71;100528.75;4981212;28;20054;-79
2023/07/26 06:51:43;;;;;;;8.65;5.82;;;;;;;18.71;75.62;100506.69;4981696;28;20082;-83
2023/07/26 06:54:13;;;;;;;11.95;6.05;;;;;;;19.33;73.45;100523.66;4981012;28;20053;-81
2023/07/26 06:56:57;;;;;;;10.93;5.72;;;;;;;20.12;70.63;100532.75;4980420;28;20058;-81
2023/07/26 06:59:48;;;;;;;10.07;5.10;;;;;;;19.84;71.53;100539.38;4981006;28;20417;-80
2023/07/26 07:05:19;;;;;;;10.65;5.65;;;;;;;18.92;72.60;100545.31;4954246;29;20055;-79
2023/07/26 07:07:49;;;;;;;11.20;5.13;;;;;;;19.84;72.18;100541.22;4954573;28;20062;-80
2023/07/26 07:10:40;;;;;;;;;;;;;;;;;;;;;
2023/07/26 07:13:16;;;;;;;9.15;5.40;;;;;;;20.71;67.84;100534.72;4970804;28;20050;-79
2023/07/26 07:18:51;;;;;;;9.43;5.47;;;;;;;21.00;67.56;100538.41;4973415;28;20061;-80
2023/07/26 07:21:23;;;;;;;10.73;5.32;;;;;;;22.00;65.64;100532.28;4976240;28;20412;-80
2023/07/26 07:24:14;;;;;;;11.15;5.18;;;;;;;22.51;64.79;100521.66;4979008;28;20074;-78
2023/07/26 07:26:58;;;;;;;10.93;5.50;;;;;;;22.76;64.17;100523.19;4976786;28;20086;-78
2023/07/26 07:30:10;;;;;;;9.07;4.93;;;;;;;23.16;62.76;100529.25;4988105;28;20055;-81
2023/07/26 07:32:38;;;;;;;11.13;5.38;;;;;;;23.35;62.45;100542.41;4976361;28;20178;-80
2023/07/26 07:35:08;;;;;;;9.05;5.10;;;;;;;24.00;61.20;100547.97;4979991;28;20069;-80
2023/07/26 07:37:50;;;;;;;8.45;4.80;;;;;;;24.32;60.41;100550.00;4978944;28;20376;-79
2023/07/26 07:40:28;;;;;;;10.20;5.43;;;;;;;24.30;60.61;100536.06;4973678;28;20057;-80
2023/07/26 07:42:55;;;;;;;12.25;5.22;;;;;;;24.20;60.55;100547.41;4979530;28;20051;-81
2023/07/26 07:45:30;;;;;;;11.65;5.57;;;;;;;24.58;60.04;100535.84;4979786;28;20059;-81
2023/07/26 07:47:56;;;;;;;11.95;5.32;;;;;;;24.78;59.50;100533.41;4978917;28;20062;-80
2023/07/26 07:50:23;;;;;;;6.55;4.63;;;;;;;24.97;59.27;100543.81;4978195;28;20050;-79
2023/07/26 07:52:51;;;;;;;11.27;5.40;;;;;;;24.65;59.46;100549.84;4975694;28;20053;-80
2023/07/26 07:55:21;;;;;;;13.10;5.50;;;;;;;24.65;60.29;100551.72;4977621;28;20120;-80
2023/07/26 07:57:48;;;;;;;13.88;6.38;;;;;;;22.98;63.41;100552.72;4978862;28;20116;-81
2023/07/26 08:00:15;;;;;;;9.00;5.40;;;;;;;23.74;62.70;100554.78;4980129;28;20054;-82
2023/07/26 08:06:12;;;;;;;9.98;5.70;;;;;;;23.98;61.32;100534.03;4975176;28;20069;-81
2023/07/26 08:08:49;;;;;;;8.30;5.10;;;;;;;20.90;66.52;100526.69;4979839;28;20043;-79
2023/07/26 08:11:17;;;;;;;11.80;5.60;;;;;;;20.40;69.35;100522.41;4981545;28;20050;-80
2023/07/26 08:13:49;;;;;;;11.73;6.03;;;;;;;20.72;69.08;100520.41;4980326;28;20066;-81
2023/07/26 08:16:16;;;;;;;11.77;6.10;;;;;;;21.62;68.52;100535.44;4988781;28;20089;-81
2023/07/26 08:18:42;;;;;;;9.68;5.53;;;;;;;21.70;67.98;100537.75;4980791;28;20086;-80
2023/07/26 08:21:16;;;;;;;12.25;6.00;;;;;;;21.76;66.53;100531.47;4978770;28;20059;-79
2023/07/26 08:23:44;;;;;;;9.18;5.90;;;;;;;22.11;66.57;100534.97;4977878;28;20496;-80
2023/07/26 08:26:10;;;;;;;9.07;5.90;;;;;;;22.24;65.40;100530.41;4976086;28;20134;-79
2023/07/26 08:28:38;;;;;;;10.38;5.30;;;;;;;22.47;63.33;100525.03;4977978;28;20557;-80
2023/07/26 08:31:07;;;;;;;9.07;5.40;;;;;;;22.86;64.12;100533.28;4977456;28;20389;-80
2023/07/26 08:33:34;;;;;;;11.85;5.82;;;;;;;23.25;62.52;100527.00;4976896;28;20055;-79
2023/07/26 08:36:01;;;;;;;11.02;5.65;;;;;;;22.66;63.50;100541.69;4975987;28;20105;-79
2023/07/26 08:38:27;;;;;;;8.70;5.07;;;;;;;21.60;65.40;100542.84;4976312;28;20081;-79
2023/07/26 08:41:06;;;;;;;9.23;5.72;;;;;;;21.05;67.61;100535.06;4977043;28;20188;-80
2023/07/26 08:43:37;;;;;;;10.50;5.95;;;;;;;21.30;67.38;100543.72;4977318;28;20059;-79
2023/07/26 08:46:07;;;;;;;10.38;5.75;;;;;;;20.14;68.61;100528.03;4977322;28;20134;-80
2023/07/26 08:48:34;;;;;;;9.32;5.93;;;;;;;19.93;69.75;100531.91;4978010;28;20059;-80
2023/07/26 08:51:01;;;;;;;10.05;5.70;;;;;;;20.50;69.36;100533.34;4977819;28;20078;-79
2023/07/26 08:53:33;;;;;;;8.43;5.07;;;;;;;21.26;68.11;100533.78;4985104;28;20476;-80
2023/07/26 08:56:05;;;;;;;;;;;;;;;21.47;65.49;100511.91;4972504;28;20062;-80
2023/07/26 08:58:32;;;;;;;8.02;5.35;;;;;;;21.28;66.78;100524.50;4979314;28;19926;-78
2023/07/26 09:00:59;;;;;;;10.80;5.53;;;;;;;21.66;66.43;100505.47;4975385;28;20125;-80
2023/07/26 09:03:26;;;;;;;13.43;5.97;;;;;;;21.74;64.92;100506.97;4976528;28;20360;-79
2023/07/26 09:06:03;;;;;;;10.30;5.50;;;;;;;22.70;63.24;100508.94;4975911;28;20051;-80
2023/07/26 09:08:30;;;;;;;8.80;5.25;;;;;;;22.59;62.85;100515.16;4978714;28;20138;-80
2023/07/26 09:10:57;;;;;;;11.30;6.03;;;;;;;21.64;65.15;100515.53;4975880;28;20515;-80
2023/07/26 09:13:27;;;;;;;11.65;6.30;;;;;;;20.35;69.24;100522.25;4975838;28;20137;-78
2023/07/26 09:15:54;;;;;;;11.38;6.43;;;;;;;19.98;71.65;100518.78;4974968;28;20528;-80
2023/07/26 09:18:22;;;;;;;13.43;6.40;;;;;;;20.86;69.82;100508.53;4975972;28;20051;-80
2023/07/26 09:21:01;;;;;;;10.82;6.18;;;;;;;21.92;67.79;100508.66;4978080;28;20085;-78
2023/07/26 09:23:27;;;;;;;10.15;5.80;;;;;;;21.78;66.42;100498.25;4977850;28;20061;-81
2023/07/26 09:25:54;;;;;;;9.73;5.97;;;;;;;20.94;67.10;100495.94;4982821;28;20127;-79
2023/07/26 09:28:22;;;;;;;14.63;6.07;;;;;;;21.64;67.33;100488.09;4987439;28;20051;-79
2023/07/26 09:30:50;;;;;;;9.52;5.78;;;;;;;22.28;66.25;100492.41;4987105;28;20042;-79
2023/07/26 09:33:17;;;;;;;8.50;6.18;;;;;;;22.36;64.72;100485.91;4987989;28;20081;-80
2023/07/26 09:35:46;;;;;;;10.43;6.45;;;;;;;22.52;62.21;100482.47;4988155;28;20051;-80
2023/07/26 09:38:14;;;;;;;10.65;5.72;;;;;;;23.04;60.97;100456.50;4987637;28;20082;-80
2023/07/26 09:40:41;;;;;;;7.35;5.53;;;;;;;23.13;59.25;100451.56;4982703;28;20078;-79
2023/07/26 09:43:08;;;;;;;7.70;5.63;;;;;;;22.84;59.91;100464.94;4982695;28;20127;-80
2023/07/26 09:45:36;;;;;;;12.18;6.07;;;;;;;21.95;62.55;100482.38;4982663;28;20051;-80
2023/07/26 09:48:08;;;;;;;10.25;6.00;;;;;;;21.49;64.56;100492.00;4982284;28;20133;-80
2023/07/26 09:50:38;;;;;;;11.80;6.15;;;;;;;21.11;67.04;100504.91;4981438;28;20118;-81
2023/07/26 09:53:06;;;;;;;10.07;6.05;;;;;;;20.54;68.76;100501.81;4980647;28;20047;-80
2023/07/26 09:55:35;;;;;;;11.30;6.07;;;;;;;20.17;69.13;100496.50;4981793;28;20145;-79
2023/07/26 09:58:04;;;;;;;11.80;6.43;;;;;;;20.23;69.18;100488.69;4973656;28;20113;-80
2023/07/26 10:00:33;;;;;;;8.90;5.63;;;;;;;19.94;69.49;100498.19;4980911;28;20051;-80
2023/07/26 10:03:03;;;;;;;11.65;6.30;;;;;;;19.41;69.72;100499.47;4981026;28;20055;-79
2023/07/26 10:05:35;;;;;;;12.40;7.10;;;;;;;18.53;78.74;100519.78;4977825;28;20051;-79
2023/07/26 10:08:03;;;;;;;9.70;6.43;;;;;;;18.13;81.19;100525.25;4975995;28;20130;-79
2023/07/26 10:10:30;;;;;;;11.10;5.50;;;;;;;17.14;82.39;100512.06;4979084;28;20073;-78
2023/07/26 10:12:58;;;;;;;7.75;5.85;;;;;;;16.88;84.96;100528.69;4977804;28;20050;-79
2023/07/26 10:15:28;;;;;;;9.55;6.50;;;;;;;16.62;87.59;100523.28;4976788;28;20054;-78
2023/07/26 10:17:55;;;;;;;9.68;6.20;;;;;;;16.49;88.59;100518.78;4981579;28;20062;-78
2023/07/26 10:20:25;;;;;;;11.32;7.25;;;;;;;16.31;88.49;100509.75;4981364;28;20110;-78
2023/07/26 10:22:56;;;;;;;9.95;6.53;;;;;;;16.56;90.15;100503.75;4994382;28;20054;-78
2023/07/26 10:25:23;;;;;;;11.30;6.22;;;;;;;16.37;88.14;100506.34;4993931;28;20051;-78
2023/07/26 10:27:52;;;;;;;10.45;6.28;;;;;;;16.76;86.57;100506.50;4981906;28;20101;-79
2023/07/26 10:30:18;;;;;;;9.70;6.40;;;;;;;17.65;85.58;100497.41;4977764;28;20433;-79
2023/07/26 10:32:48;;;;;;;9.23;5.60;;;;;;;18.87;82.90;100500.91;4979352;28;20130;-80
2023/07/26 10:35:26;;;;;;;7.38;5.32;;;;;;;19.52;81.02;100504.13;4979322;28;20440;-79
2023/07/26 10:37:56;;;;;;;5.53;4.20;;;;;;;19.17;76.09;100503.75;4977176;28;20047;-78
2023/07/26 10:40:31;;;;;;;9.57;4.80;;;;;;;19.13;76.13;100513.16;4977792;28;20057;-78
2023/07/26 10:42:58;;;;;;;6.93;4.20;;;;;;;18.56;75.65;100492.88;4998217;23;20049;-79
2023/07/26 10:45:38;;;;;;;5.53;4.07;;;;;;;17.92;78.37;100512.28;4977539;28;20142;-79
2023/07/26 10:48:05;;;;;;;6.88;4.88;;;;;;;17.89;82.22;100518.78;4973639;28;20081;-79
2023/07/26 10:50:32;;;;;;;9.32;4.82;;;;;;;17.80;82.22;100511.28;4977811;28;20077;-78
2023/07/26 10:53:30;;;;;;;6.47;5.10;;;;;;;17.38;81.10;100500.09;4974836;28;20716;-78
2023/07/26 10:56:09;;;;;;;8.00;5.50;;;;;;;17.03;84.17;100511.81;4975122;28;20043;-79
2023/07/26 10:58:36;;;;;;;9.75;6.15;;;;;;;16.61;85.68;100513.72;4976884;28;20130;-79
2023/07/26 11:01:03;;;;;;;11.90;6.90;;;;;;;16.64;89.05;100526.56;4978299;28;20561;-79
2023/07/26 11:03:30;;;;;;;11.05;7.57;;;;;;;16.18;91.68;100532.44;4977146;28;20469;-80
2023/07/26 11:05:57;;;;;;;11.15;7.53;;;;;;;16.09;92.33;100540.69;4977022;28;20050;-80
2023/07/26 11:08:41;;;;;;;10.73;8.25;;;;;;;16.09;94.76;100544.16;4975624;28;20074;-78
2023/07/26 11:11:08;;;;;;;9.68;6.88;;;;;;;16.08;95.16;100537.25;4974432;28;20138;-78
2023/07/26 11:13:35;;;;;;;8.77;7.13;;;;;;;16.24;93.70;100539.56;4976530;28;20047;-80
2023/07/26 11:16:02;;;;;;;11.88;7.18;;;;;;;16.55;93.68;100547.03;4971437;28;20138;-80
2023/07/26 11:18:29;;;;;;;9.60;6.90;;;;;;;16.30;94.88;100553.00;4975907;28;20568;-78
2023/07/26 11:20:56;;;;;;;11.95;7.78;;;;;;;16.60;98.32;100581.59;4977194;28;20065;-83
2023/07/26 11:23:24;;;;;;;13.55;8.85;;;;;;;16.60;99.16;100581.59;4976000;28;20055;-81
2023/07/26 11:25:54;;;;;;;12.02;8.95;;;;;;;16.71;99.29;100580.25;4976372;28;20074;-82
2023/07/26 11:28:21;;;;;;;11.70;8.70;;;;;;;16.44;96.68;100560.81;4976651;28;20130;-81
2023/07/26 11:30:52;;;;;;;11.57;7.47;;;;;;;16.53;95.36;100567.56;4978203;28;20097;-82
2023/07/26 11:33:29;;;;;;;10.93;6.93;;;;;;;16.81;94.57;100572.78;4976800;28;20109;-82
2023/07/26 11:35:56;;;;;;;10.73;7.25;;;;;;;16.77;94.51;100584.75;4979363;28;20145;-79
2023/07/26 11:38:23;;;;;;;10.13;7.00;;;;;;;16.75;94.77;100578.84;4976099;28;20050;-80
2023/07/26 11:40:52;;;;;;;10.77;6.85;;;;;;;17.06;94.98;100585.44;4976574;28;20078;-81
2023/07/26 11:43:21;;;;;;;10.98;7.72;;;;;;;16.89;95.31;100583.19;4968454;28;20055;-80
2023/07/26 11:45:47;;;;;;;8.93;6.75;;;;;;;16.45;94.12;100566.91;4977000;28;20058;-82
2023/07/26 11:48:16;;;;;;;9.55;6.60;;;;;;;16.78;94.08;100581.09;4976264;28;20088;-81